Airfield :
LOGIN :

Register | Disclaimer

   EN    FR    IT 

 










Legend :    VFR   Marginal VFR   IFR   Intensive IFR   Very Intensive IFR
Visi :
Ceiling :
>= 8 km
>= 3000ft
5 to 8 km
1000 to 3000 ft
1500m to 5 km
500 to 1000 ft
800 to 1500m
200 to 500 ft
< 800m
< 200 ft
Symbols :   Thunderstorms  Fog  Heavy snow  Heavy precipitations  Wind > 20 kt
SIGMETs :     Misc.  Thunderstorms  Icing  Turbulence  Mountain Waves  Volcanic Ashes






- Airport Elevation : 194 ft
- IATA code : LME


LFRM - Le Mans

CURRENT METAR :
  • 071030Z AUTO 24004KT 200V280 9999 SCT007 OVC042 11/10 Q1020 TEMPO 3000 BR BKN008

EXPIRED METARs :
  • 071000Z AUTO 26003KT 220V290 9999 BKN006 BKN029 OVC041 10/10 Q1020 TEMPO 3000 BR
  • 070930Z AUTO 21004KT 180V240 9999 FEW006 OVC041 10/10 Q1019 TEMPO 3000 BR BKN008
  • 070900Z AUTO 21004KT 170V240 9999 FEW033 OVC042 10/09 Q1019 TEMPO 3000 BR BKN008
  • 070830Z AUTO 22003KT 180V270 5000 BR BKN006 BKN030 OVC041 09/09 Q1019 NOSIG
  • 070800Z AUTO 00000KT 9999 OVC006 09/09 Q1019 TEMPO 3000 BR

TAF TAF LFRM
Valid from the 07 at 06:00 until the 08 at 06:00 UTC


070500Z 0706/0806 24003KT 9999 SCT012 BKN040
TEMPO 0706/0715 3000 BR BKN008
BECMG 0722/0724 20012KT
BECMG 0803/0806 3000 RA BKN006



MET'MAP, your aeronautical weather chart ! - Copyright ORBIFLY December 2007 - Disclaimer

ORBIFLY MET'MAP TEAM :

Programming & Development : Alexandra Zaïnal
Concept & original design : Baudouin d'Aumeries
Assistance for programming : Marc-Olivier Méhu
Technical & hardware support : Manuel Goepfert

Contact : metmap@orbifly.com




SOURCES & CREDITS :

   NOAA